Big Trout Lake, Big Trout Lake Airport (CYTL)

NameBig Trout Lake Airport
CityBig Trout Lake
CountryCanada
ICAOCYTL
IATAYTL
Altitude223 m
CoordinatesGoogle Map
Live Air TrafficLiveATC.net
METARCYTL 230000Z AUTO VRB02KT 9SM CLR 13/10 A3019 RMK SLP233
2019-08-23 00:00:00 Wind: North (0°) 1.03 m/s - Visibility: 14484.06 m - Temperature: 13 °C - Dew point: 10 °C - Humidity: 82.2% - Pressure: 1022.35 hPa
Statistics

The table below shows the detailed information of all flights to/from Big Trout Lake, Big Trout Lake Airport (CYTL).